Aérodrome :
LOGIN :

S'inscrire | Disclaimer

   EN    FR    IT 

 










Légende :    VFR   VFR Marginal   IFR   IFR Intensif   IFR Très Intensif
Visi : 
Plafond : 
>= 8 km
>= 3000ft
5 à 8 km
1000 à 3000 ft
1500m à 5 km
500 à 1000 ft
800 à 1500m
200 à 500 ft
< 800m
< 200 ft
Symboles :   Orages  Brouillard  Fortes neiges  Fortes précipitations  Vent > 20 kt
SIGMETs :   Divers  Orages  Givrage  Turbulence  Onde Orograph.  Cendres Volcan.






- Altitude de l'aérodrome : 376 ft


LHKE - Kecskemét

DERNIER METAR :
  • 101115Z 30008KT 250V350 CAVOK 22/04 Q1021 R12/01//95 NOSIG RMK BLU

METARs EXPIRÉS :
  • 101045Z 27004KT CAVOK 21/03 Q1021 R12/01//95 NOSIG RMK BLU
  • 101015Z 26006KT 150V300 CAVOK 20/04 Q1021 R12/01//95 NOSIG RMK BLU
  • 100945Z VRB04KT CAVOK 20/04 Q1022 R12/01//95 NOSIG RMK BLU
  • 100915Z 02002KT CAVOK 19/05 Q1022 R12/01//95 NOSIG RMK BLU
  • 100845Z 04006KT 350V120 CAVOK 19/04 Q1022 R12/01//95 NOSIG RMK BLU
  • 100815Z 08008KT 040V120 CAVOK 18/04 Q1022 R12/01//95 NOSIG RMK BLU

TAF TAF LHKE
Valide du 10 à 09h jusqu'au 10 à 18h UTC


100815Z 1009/1018 04009KT CAVOK
BECMG 1009/1011 36007KT
TEMPO 1011/1015 33010G20KT



MET'MAP, la Météo Aéronautique d'un coup d'oeil ! - Copyright ORBIFLY Décembre 2007 - Disclaimer

ORBIFLY MET'MAP TEAM :

Programmation & Développement : Alexandra Zaïnal
Sur une idée originale de : Baudouin d'Aumeries
Assistance à la programmation : Marc-Olivier Méhu
Soutien technique & logistique : Manuel Goepfert

Contact : metmap@orbifly.com




SOURCES & CREDITS :

   NOAA